Time;durP1;ratioP1;P1;durP2;ratioP2;P2;SDS_P1;SDS_P2;PMS_P1;PMS_P2;Temp;Humidity;BMP_temperature;BMP_pressure;BME280_temperature;BME280_humidity;BME280_pressure;Samples;Min_cycle;Max_cycle;Signal;HPM_P1;HPM_P2
2022/03/22 00:00:56;;;;;;;;;;;;;;;4.53;47.19;97798.66;5074219;28;19956;-70
2022/03/22 00:03:25;;;;;;;;;;;;;;;4.51;47.01;97803.19;5073786;28;19970;-70
2022/03/22 00:05:51;;;;;;;;;;;;;;;4.50;46.95;97800.75;5074219;28;19960;-70
2022/03/22 00:08:17;;;;;;;;;;;;;;;4.46;47.02;97802.81;5074134;28;20395;-70
2022/03/22 00:10:44;;;;;;;;;;;;;;;4.41;47.32;97794.63;5073986;28;19948;-70
2022/03/22 00:13:10;;;;;;;;;;;;;;;4.39;47.13;97791.34;5074658;28;19997;-70
2022/03/22 00:15:36;;;;;;;;;;;;;;;4.38;47.20;97795.72;5074049;28;19951;-70
2022/03/22 00:18:02;;;;;;;;;;;;;;;4.35;47.18;97788.25;5074199;28;19963;-70
2022/03/22 00:20:28;;;;;;;;;;;;;;;4.33;47.38;97794.56;5073946;28;20400;-70
2022/03/22 00:22:54;;;;;;;;;;;;;;;4.27;47.41;97801.94;5072843;28;20023;-70
2022/03/22 00:25:20;;;;;;;;;;;;;;;4.23;47.53;97797.19;5074031;28;19955;-70
2022/03/22 00:27:53;;;;;;;;;;;;;;;4.19;47.69;97794.06;5074220;28;20398;-70
2022/03/22 00:30:19;;;;;;;;;;;;;;;4.14;47.94;97792.88;5074167;28;19947;-69
2022/03/22 00:32:45;;;;;;;;;;;;;;;4.11;47.47;97793.94;5073744;28;20403;-70
2022/03/22 00:35:11;;;;;;;;;;;;;;;4.10;48.14;97800.13;5074017;28;19958;-70
2022/03/22 00:37:41;;;;;;;;;;;;;;;4.03;48.44;97799.88;5073382;28;19952;-71
2022/03/22 00:40:10;;;;;;;;;;;;;;;3.98;48.32;97794.28;5073731;28;19969;-71
2022/03/22 00:42:36;;;;;;;;;;;;;;;3.91;48.91;97790.63;5073563;28;19950;-71
2022/03/22 00:45:02;;;;;;;;;;;;;;;3.84;48.80;97786.97;5073839;28;19962;-70
2022/03/22 00:47:30;;;;;;;;;;;;;;;3.78;48.83;97787.53;5072449;28;19943;-70
2022/03/22 00:49:55;;;;;;;;;;;;;;;3.75;48.99;97782.63;5073599;28;20417;-72
2022/03/22 00:52:21;;;;;;;;;;;;;;;3.72;49.17;97791.53;5073485;28;19952;-71
2022/03/22 00:54:47;;;;;;;;;;;;;;;3.70;49.05;97788.25;5073885;28;19948;-70
2022/03/22 00:57:13;;;;;;;;;;;;;;;3.69;49.23;97788.38;5073477;28;19982;-70
2022/03/22 01:02:35;;;;;;;;;;;;;;;3.58;49.53;97782.41;5072386;28;20464;-70
2022/03/22 01:05:02;;;;;;;;;;;;;;;3.55;49.45;97785.28;5073725;28;19946;-69
2022/03/22 01:07:29;;;;;;;;;;;;;;;3.51;49.69;97780.50;5073455;28;19947;-70
2022/03/22 01:09:55;;;;;;;;;;;;;;;3.48;49.46;97770.41;5073680;28;20405;-70
2022/03/22 01:12:21;;;;;;;;;;;;;;;3.44;49.51;97775.91;5073229;28;19956;-70
2022/03/22 01:14:47;;;;;;;;;;;;;;;3.42;49.65;97772.63;5073473;28;19946;-70
2022/03/22 01:17:13;;;;;;;;;;;;;;;3.38;49.91;97773.00;5073269;28;20392;-71
2022/03/22 01:19:39;;;;;;;;;;;;;;;3.33;49.55;97770.03;5073424;28;20376;-70
2022/03/22 01:22:05;;;;;;;;;;;;;;;3.28;49.69;97772.25;5073230;28;19948;-71
2022/03/22 01:24:32;;;;;;;;;;;;;;;3.23;50.07;97767.44;5073363;28;19959;-71
2022/03/22 01:26:57;;;;;;;;;;;;;;;3.19;50.15;97763.50;5073432;28;20301;-70
2022/03/22 01:29:23;;;;;;;;;;;;;;;3.15;50.07;97765.56;5073087;28;19956;-70
2022/03/22 01:31:50;;;;;;;;;;;;;;;3.14;50.25;97766.50;5073218;28;20005;-71
2022/03/22 01:34:16;;;;;;;;;;;;;;;3.11;50.42;97768.56;5073084;28;19956;-71
2022/03/22 01:36:42;;;;;;;;;;;;;;;3.08;50.01;97764.47;5073132;28;20034;-70
2022/03/22 01:39:07;;;;;;;;;;;;;;;3.05;49.96;97762.16;5073083;28;19957;-72
2022/03/22 01:41:34;;;;;;;;;;;;;;;3.03;50.44;97759.69;5073254;28;19948;-71
2022/03/22 01:44:00;;;;;;;;;;;;;;;3.01;50.47;97756.44;5073134;28;19957;-71
2022/03/22 01:46:27;;;;;;;;;;;;;;;3.00;50.66;97759.16;5073169;28;19954;-71
2022/03/22 01:48:54;;;;;;;;;;;;;;;2.98;50.66;97758.47;5072351;28;20295;-72
2022/03/22 01:51:23;;;;;;;;;;;;;;;2.93;50.43;97748.53;5066356;28;19950;-70
2022/03/22 01:53:49;;;;;;;;;;;;;;;2.91;50.39;97749.63;5076628;28;20343;-70
2022/03/22 01:56:16;;;;;;;;;;;;;;;2.89;50.49;97748.94;5076951;28;19952;-70
2022/03/22 01:58:41;;;;;;;;;;;;;;;2.87;50.68;97743.88;5076482;28;19943;-72
2022/03/22 02:06:37;;;;;;;;;;;;;;;2.82;51.00;97736.53;5076552;28;19960;-71
2022/03/22 02:09:03;;;;;;;;;;;;;;;2.78;50.66;97740.34;5076663;28;20347;-70
2022/03/22 02:11:29;;;;;;;;;;;;;;;2.77;50.54;97740.47;5076241;28;19945;-70
2022/03/22 02:13:56;;;;;;;;;;;;;;;2.75;51.07;97740.63;5076506;28;19961;-70
2022/03/22 02:16:22;;;;;;;;;;;;;;;2.73;51.28;97739.13;5076515;28;20308;-70
2022/03/22 02:18:49;;;;;;;;;;;;;;;2.71;51.42;97736.69;5076533;28;19945;-71
2022/03/22 02:21:15;;;;;;;;;;;;;;;2.69;51.16;97735.16;5076304;28;20431;-71
2022/03/22 02:23:51;;;;;;;;;;;;;;;2.66;51.55;97736.25;5076261;28;19969;-71
2022/03/22 02:26:18;;;;;;;;;;;;;;;2.60;51.56;97742.81;5076132;28;19952;-71
2022/03/22 02:28:44;;;;;;;;;;;;;;;2.56;52.25;97749.22;5076096;28;19960;-71
2022/03/22 02:31:10;;;;;;;;;;;;;;;2.52;52.00;97747.84;5076067;28;19951;-70
2022/03/22 02:33:39;;;;;;;;;;;;;;;2.44;51.73;97747.69;5075844;28;19949;-71
2022/03/22 02:36:05;;;;;;;;;;;;;;;2.39;51.70;97747.25;5075876;28;20303;-71
2022/03/22 02:38:31;;;;;;;;;;;;;;;2.36;51.64;97752.72;5075812;28;19949;-71
2022/03/22 02:40:57;;;;;;;;;;;;;;;2.33;52.03;97751.22;5076198;28;20315;-71
2022/03/22 02:43:24;;;;;;;;;;;;;;;2.31;52.23;97752.28;5075936;28;19962;-70
2022/03/22 02:45:50;;;;;;;;;;;;;;;2.30;52.58;97745.50;5075772;28;19963;-71
2022/03/22 02:48:17;;;;;;;;;;;;;;;2.30;52.88;97755.84;5076196;28;19948;-71
2022/03/22 02:50:43;;;;;;;;;;;;;;;2.29;52.38;97751.59;5075922;28;19951;-71
2022/03/22 02:53:10;;;;;;;;;;;;;;;2.26;52.58;97749.28;5075562;28;19996;-71
2022/03/22 02:55:36;;;;;;;;;;;;;;;2.19;52.96;97754.19;5075681;28;20003;-70
2022/03/22 02:58:02;;;;;;;;;;;;;;;2.13;52.52;97747.75;5075710;28;19950;-71
2022/03/22 03:00:28;;;;;;;;;;;;;;;2.09;52.64;97746.38;5075390;28;19951;-71
2022/03/22 03:02:54;;;;;;;;;;;;;;;2.08;52.99;97747.34;5075176;28;19990;-71
2022/03/22 03:05:21;;;;;;;;;;;;;;;2.09;53.34;97746.38;5075536;28;19948;-71
2022/03/22 03:07:47;;;;;;;;;;;;;;;2.05;53.55;97759.72;5075324;28;19951;-71
2022/03/22 03:10:13;;;;;;;;;;;;;;;1.99;53.38;97753.31;5075274;28;19963;-71
2022/03/22 03:12:39;;;;;;;;;;;;;;;1.93;53.09;97753.81;5075366;28;19948;-71
2022/03/22 03:15:08;;;;;;;;;;;;;;;1.89;53.55;97755.88;5075248;28;19943;-71
2022/03/22 03:17:34;;;;;;;;;;;;;;;1.87;53.29;97754.34;5075404;28;20309;-71
2022/03/22 03:20:00;;;;;;;;;;;;;;;1.84;53.97;97752.84;5075261;28;19945;-71
2022/03/22 03:22:27;;;;;;;;;;;;;;;1.82;54.32;97752.97;5075042;28;19963;-71
2022/03/22 03:24:53;;;;;;;;;;;;;;;1.79;54.37;97752.44;5075091;28;19962;-70
2022/03/22 03:27:19;;;;;;;;;;;;;;;1.75;53.82;97751.06;5074936;28;19949;-71
2022/03/22 03:29:45;;;;;;;;;;;;;;;1.74;54.39;97746.81;5075003;28;19952;-70
2022/03/22 03:32:10;;;;;;;;;;;;;;;1.71;54.87;97750.47;5075381;28;20039;-70
2022/03/22 03:34:37;;;;;;;;;;;;;;;1.69;55.02;97754.16;5074820;28;19957;-72
2022/03/22 03:37:03;;;;;;;;;;;;;;;1.65;55.32;97752.78;5074915;28;19956;-70
2022/03/22 03:39:28;;;;;;;;;;;;;;;1.61;55.35;97754.78;5075030;28;19945;-71
2022/03/22 03:41:55;;;;;;;;;;;;;;;1.58;54.69;97763.63;5074598;28;20368;-71
2022/03/22 03:47:10;;;;;;;;;;;;;;;1.59;54.72;97767.03;5064653;28;19948;-71
2022/03/22 03:49:37;;;;;;;;;;;;;;;1.55;54.80;97766.44;5074407;28;19948;-71
2022/03/22 03:52:05;;;;;;;;;;;;;;;1.54;55.36;97769.19;5074787;28;19942;-71
2022/03/22 03:54:31;;;;;;;;;;;;;;;1.55;55.19;97768.22;5074328;28;19942;-71
2022/03/22 03:56:57;;;;;;;;;;;;;;;1.53;55.44;97764.94;5074845;28;19952;-70
2022/03/22 03:59:23;;;;;;;;;;;;;;;1.52;56.01;97769.31;5074443;28;19993;-71
2022/03/22 04:01:49;;;;;;;;;;;;;;;1.49;56.07;97772.16;5074149;28;19960;-71
2022/03/22 04:04:15;;;;;;;;;;;;;;;1.46;55.65;97776.75;5074139;28;19966;-71
2022/03/22 04:06:41;;;;;;;;;;;;;;;1.44;55.81;97776.06;5074324;28;20059;-71
2022/03/22 04:09:07;;;;;;;;;;;;;;;1.44;56.47;97778.66;5074401;28;20039;-71
2022/03/22 04:11:32;;;;;;;;;;;;;;;1.43;56.73;97772.69;5073753;28;19995;-70
2022/03/22 04:13:58;;;;;;;;;;;;;;;1.41;56.24;97771.97;5072823;28;19958;-71
2022/03/22 04:16:24;;;;;;;;;;;;;;;1.39;56.33;97771.28;5074171;28;19960;-72
2022/03/22 04:18:50;;;;;;;;;;;;;;;1.39;56.36;97771.28;5073908;28;19999;-72
2022/03/22 04:21:16;;;;;;;;;;;;;;;1.37;57.09;97768.81;5073918;28;20312;-71
2022/03/22 04:24:05;;;;;;;;;;;;;;;1.38;57.09;97767.03;5073765;28;19963;-71
2022/03/22 04:26:50;;;;;;;;;;;;;;;1.37;57.05;97768.81;5074395;28;19971;-70
2022/03/22 04:34:46;;;;;;;;;;;;;;;1.33;56.74;97771.78;5074102;28;20328;-70
2022/03/22 04:37:13;;;;;;;;;;;;;;;1.31;56.95;97765.94;5073675;28;19948;-70
2022/03/22 04:39:43;;;;;;;;;;;;;;;1.25;57.11;97767.25;5073776;28;19975;-70
2022/03/22 04:42:09;;;;;;;;;;;;;;;1.23;57.36;97770.91;5073799;28;19946;-70
2022/03/22 04:44:35;;;;;;;;;;;;;;;1.21;57.16;97771.84;5073678;28;20434;-70
2022/03/22 04:47:02;;;;;;;;;;;;;;;1.21;57.30;97771.03;5073682;28;20320;-70
2022/03/22 04:49:29;;;;;;;;;;;;;;;1.21;57.67;97778.78;5073838;28;20297;-71
2022/03/22 04:57:24;;;;;;;;;;;;;;;1.15;57.31;97790.44;5073978;28;19949;-70
2022/03/22 04:59:50;;;;;;;;;;;;;;;1.13;57.49;97787.16;5073684;28;19947;-70
2022/03/22 05:02:16;;;;;;;;;;;;;;;1.12;57.55;97776.97;5073385;28;19986;-70
2022/03/22 05:04:42;;;;;;;;;;;;;;;1.11;57.19;97786.44;5073328;28;20021;-70
2022/03/22 05:07:09;;;;;;;;;;;;;;;1.11;57.77;97790.81;5073741;28;19955;-70
2022/03/22 05:09:35;;;;;;;;;;;;;;;1.12;57.71;97784.72;5073332;28;19955;-70
2022/03/22 05:12:01;;;;;;;;;;;;;;;1.11;57.55;97793.38;5073978;28;20409;-70
2022/03/22 05:14:26;;;;;;;;;;;;;;;1.08;57.47;97791.88;5073457;28;19975;-70
2022/03/22 05:16:58;;;;;;;;;;;;;;;1.08;57.55;97785.91;5071979;28;19990;-70
2022/03/22 05:19:27;;;;;;;;;;;;;;;1.04;57.96;97793.06;5073669;28;20390;-70
2022/03/22 05:21:53;;;;;;;;;;;;;;;1.01;58.07;97795.91;5073267;28;19964;-71
2022/03/22 05:24:19;;;;;;;;;;;;;;;0.98;57.68;97799.53;5074906;28;19966;-70
2022/03/22 05:26:48;;;;;;;;;;;;;;;1.00;57.55;97799.44;5077337;28;19942;-70
2022/03/22 05:29:14;;;;;;;;;;;;;;;1.01;57.55;97801.91;5077078;28;20087;-71
2022/03/22 05:31:40;;;;;;;;;;;;;;;1.02;58.26;97798.34;5076903;28;19949;-71
2022/03/22 05:34:06;;;;;;;;;;;;;;;1.02;58.39;97805.28;5077335;28;19953;-70
2022/03/22 05:36:32;;;;;;;;;;;;;;;1.02;58.25;97805.28;5077216;28;19948;-71
2022/03/22 05:38:58;;;;;;;;;;;;;;;1.01;58.10;97812.22;5077202;28;19947;-71
2022/03/22 05:41:24;;;;;;;;;;;;;;;1.02;57.93;97813.84;5075801;28;19970;-71
2022/03/22 05:43:50;;;;;;;;;;;;;;;1.04;58.25;97820.69;5077040;28;19972;-71
2022/03/22 05:46:17;;;;;;;;;;;;;;;1.03;58.81;97817.28;5077067;28;20318;-70
2022/03/22 05:48:44;;;;;;;;;;;;;;;1.02;58.54;97815.63;5076806;28;19954;-71
2022/03/22 05:51:10;;;;;;;;;;;;;;;1.01;58.18;97816.59;5077357;28;19946;-71
2022/03/22 05:53:36;;;;;;;;;;;;;;;1.01;58.54;97809.66;5076422;28;19955;-71
2022/03/22 05:56:02;;;;;;;;;;;;;;;1.08;58.60;97812.56;5076886;28;19954;-71
2022/03/22 05:58:28;;;;;;;;;;;;;;;1.44;58.13;97807.09;5076655;28;19986;-71
2022/03/22 06:00:54;;;;;;;;;;;;;;;2.03;57.46;97811.59;5076323;28;19960;-71
2022/03/22 06:03:20;;;;;;;;;;;;;;;2.66;56.13;97813.97;5076548;28;20343;-71
2022/03/22 06:05:46;;;;;;;;;;;;;;;3.28;54.29;97806.75;5076821;28;19987;-71
2022/03/22 06:08:12;;;;;;;;;;;;;;;3.86;53.66;97796.25;5075484;28;19956;-71
2022/03/22 06:10:38;;;;;;;;;;;;;;;4.44;52.38;97796.94;5076676;28;19948;-71
2022/03/22 06:13:04;;;;;;;;;;;;;;;5.00;51.20;97797.66;5076337;28;19943;-71
2022/03/22 06:15:31;;;;;;;;;;;;;;;5.46;50.24;97788.75;5076164;28;20432;-71
2022/03/22 06:17:58;;;;;;;;;;;;;;;5.92;49.34;97795.53;5075378;28;19953;-71
2022/03/22 06:20:25;;;;;;;;;;;;;;;6.39;48.51;97795.13;5076248;28;19941;-71
2022/03/22 06:22:52;;;;;;;;;;;;;;;6.76;47.67;97797.34;5076524;28;19947;-72
2022/03/22 06:25:18;;;;;;;;;;;;;;;7.10;46.83;97793.81;5076241;28;19968;-71
2022/03/22 06:27:46;;;;;;;;;;;;;;;7.41;46.25;97788.75;5076156;28;19945;-71
2022/03/22 06:30:13;;;;;;;;;;;;;;;7.71;45.52;97789.03;5076386;28;20313;-71
2022/03/22 06:32:46;;;;;;;;;;;;;;;7.94;44.68;97789.13;5076253;28;20321;-71
2022/03/22 06:35:13;;;;;;;;;;;;;;;8.06;44.03;97798.25;5075616;28;19951;-70
2022/03/22 06:37:39;;;;;;;;;;;;;;;8.18;44.04;97790.03;5076180;28;19957;-71
2022/03/22 06:40:08;;;;;;;;;;;;;;;8.42;43.78;97794.34;5075861;28;19946;-72
2022/03/22 06:42:34;;;;;;;;;;;;;;;8.64;43.29;97788.38;5076667;28;19942;-71
2022/03/22 06:45:00;;;;;;;;;;;;;;;8.86;43.00;97788.56;5075677;28;19971;-71
2022/03/22 06:47:26;;;;;;;;;;;;;;;9.05;42.63;97789.91;5076111;28;19954;-71
2022/03/22 06:49:52;;;;;;;;;;;;;;;9.20;42.85;97784.72;5076035;28;19985;-71
2022/03/22 06:52:18;;;;;;;;;;;;;;;9.31;42.01;97786.94;5075609;28;20040;-71
2022/03/22 06:54:44;;;;;;;;;;;;;;;9.41;41.73;97781.44;5075625;28;20294;-71
2022/03/22 06:57:10;;;;;;;;;;;;;;;9.42;41.54;97789.09;5075259;28;19961;-71
2022/03/22 06:59:35;;;;;;;;;;;;;;;9.31;41.43;97794.78;5075518;28;19950;-71
2022/03/22 07:02:01;;;;;;;;;;;;;;;9.28;41.82;97803.81;5075767;28;20376;-71
2022/03/22 07:04:27;;;;;;;;;;;;;;;9.15;41.88;97803.56;5075507;28;20332;-71
2022/03/22 07:06:53;;;;;;;;;;;;;;;9.09;41.92;97802.47;5075617;28;19950;-71
2022/03/22 07:09:19;;;;;;;;;;;;;;;9.19;41.76;97804.84;5075624;28;19978;-71
2022/03/22 07:11:51;;;;;;;;;;;;;;;9.13;41.93;97803.75;5075324;28;20173;-71
2022/03/22 07:14:17;;;;;;;;;;;;;;;9.09;41.15;97801.63;5075986;28;19959;-71
2022/03/22 07:16:47;;;;;;;;;;;;;;;8.84;41.88;97809.69;5075091;28;19955;-71
2022/03/22 07:19:23;;;;;;;;;;;;;;;8.87;42.27;97811.13;5075265;28;20300;-71
2022/03/22 07:21:49;;;;;;;;;;;;;;;9.13;42.60;97808.16;5075191;28;20421;-71
2022/03/22 07:24:18;;;;;;;;;;;;;;;9.48;42.24;97817.22;5075364;28;20047;-71
2022/03/22 07:26:44;;;;;;;;;;;;;;;9.62;42.06;97809.59;5075135;28;19963;-71
2022/03/22 07:29:10;;;;;;;;;;;;;;;9.78;41.83;97808.59;5075416;28;19956;-71
2022/03/22 07:31:38;;;;;;;;;;;;;;;9.98;41.59;97804.47;5075052;28;19959;-71
2022/03/22 07:34:05;;;;;;;;;;;;;;;10.26;41.59;97812.50;5074862;28;19970;-71
2022/03/22 07:36:31;;;;;;;;;;;;;;;10.47;42.13;97810.97;5073749;28;19955;-71
2022/03/22 07:38:57;;;;;;;;;;;;;;;10.67;41.39;97809.41;5074328;28;19948;-72
2022/03/22 07:41:23;;;;;;;;;;;;;;;10.76;41.19;97802.22;5074747;28;19995;-71
2022/03/22 07:43:48;;;;;;;;;;;;;;;10.88;41.14;97806.00;5075100;28;19957;-71
2022/03/22 07:46:14;;;;;;;;;;;;;;;10.77;40.28;97793.34;5074192;28;20366;-71
2022/03/22 07:48:40;;;;;;;;;;;;;;;10.61;40.52;97802.25;5074311;28;19952;-71
2022/03/22 07:53:50;;;;;;;;;;;;;;;10.14;40.33;97795.59;5063128;28;19950;-71
2022/03/22 07:56:16;;;;;;;;;;;;;;;10.05;41.76;97807.16;5074731;28;19967;-71
2022/03/22 07:58:42;;;;;;;;;;;;;;;9.77;41.36;97804.38;5073315;28;20004;-71
2022/03/22 08:01:08;;;;;;;;;;;;;;;9.75;41.69;97813.19;5074441;28;20338;-71
2022/03/22 08:03:34;;;;;;;;;;;;;;;9.70;41.67;97820.78;5074316;28;19978;-71
2022/03/22 08:06:00;;;;;;;;;;;;;;;9.81;41.69;97814.31;5073335;28;20001;-71
2022/03/22 08:08:26;;;;;;;;;;;;;;;9.94;42.04;97819.72;5074226;28;19962;-70
2022/03/22 08:10:52;;;;;;;;;;;;;;;10.49;49.28;97830.78;5074215;28;20371;-70
2022/03/22 08:13:18;;;;;;;;;;;;;;;11.34;41.62;97815.31;5074094;28;20327;-71
2022/03/22 08:15:45;;;;;;;;;;;;;;;11.73;39.91;97812.19;5074032;28;19951;-72
2022/03/22 08:18:11;;;;;;;;;;;;;;;12.01;38.16;97816.66;5074382;28;20409;-72
2022/03/22 08:20:37;;;;;;;;;;;;;;;12.22;38.88;97822.81;5073897;28;19976;-71
2022/03/22 08:23:04;;;;;;;;;;;;;;;12.29;38.18;97808.72;5074152;28;20333;-71
2022/03/22 08:25:33;;;;;;;;;;;;;;;12.36;37.55;97816.63;5073850;28;19969;-72
2022/03/22 08:28:01;;;;;;;;;;;;;;;12.31;37.70;97813.78;5074066;28;20299;-71
2022/03/22 08:30:27;;;;;;;;;;;;;;;12.22;37.10;97813.13;5074009;28;19955;-71
2022/03/22 08:32:54;;;;;;;;;;;;;;;12.31;38.56;97816.41;5073620;28;19966;-72
2022/03/22 08:35:21;;;;;;;;;;;;;;;12.47;36.84;97805.53;5074199;28;19971;-72
2022/03/22 08:37:47;;;;;;;;;;;;;;;12.59;38.40;97811.06;5074153;28;19958;-72
2022/03/22 08:40:14;;;;;;;;;;;;;;;12.28;36.60;97807.06;5073891;28;19965;-72
2022/03/22 08:42:43;;;;;;;;;;;;;;;12.27;38.49;97813.34;5073833;28;19949;-72
2022/03/22 08:45:13;;;;;;;;;;;;;;;12.37;42.76;97818.28;5073417;28;19974;-72
2022/03/22 08:47:40;;;;;;;;;;;;;;;12.59;36.33;97795.28;5073782;28;19944;-71
2022/03/22 08:50:10;;;;;;;;;;;;;;;12.79;36.78;97803.25;5073737;28;19948;-72
2022/03/22 08:52:36;;;;;;;;;;;;;;;12.64;36.70;97799.94;5073588;28;19958;-72
2022/03/22 08:55:03;;;;;;;;;;;;;;;12.45;36.95;97804.13;5073686;28;20416;-72
2022/03/22 08:57:29;;;;;;;;;;;;;;;12.20;37.00;97799.38;5073373;28;20410;-72
2022/03/22 08:59:55;;;;;;;;;;;;;;;12.25;37.46;97807.47;5073932;28;19971;-72
2022/03/22 09:02:21;;;;;;;;;;;;;;;12.38;36.46;97804.09;5073937;28;20424;-72
2022/03/22 09:07:32;;;;;;;;;;;;;;;12.70;37.02;97804.41;5073599;28;19963;-72
2022/03/22 09:09:58;;;;;;;;;;;;;;;12.60;37.55;97802.19;5073214;28;19957;-72
2022/03/22 09:12:24;;;;;;;;;;;;;;;12.63;37.87;97796.50;5073503;28;20394;-72
2022/03/22 09:14:53;;;;;;;;;;;;;;;12.85;37.58;97791.94;5073696;28;19960;-72
2022/03/22 09:17:19;;;;;;;;;;;;;;;13.10;36.93;97791.34;5073236;28;19956;-72
2022/03/22 09:19:45;;;;;;;;;;;;;;;13.19;35.53;97793.59;5073470;28;19954;-71
2022/03/22 09:22:11;;;;;;;;;;;;;;;13.10;35.62;97786.06;5073331;28;20012;-72
2022/03/22 09:24:37;;;;;;;;;;;;;;;13.11;37.61;97796.41;5073346;28;19970;-72
2022/03/22 09:27:03;;;;;;;;;;;;;;;13.22;36.88;97797.63;5073278;28;20002;-71
2022/03/22 09:29:29;;;;;;;;;;;;;;;13.26;35.13;97787.53;5073468;28;19957;-71
2022/03/22 09:31:55;;;;;;;;;;;;;;;13.31;35.46;97783.31;5071892;28;19963;-72
2022/03/22 09:34:23;;;;;;;;;;;;;;;13.27;33.25;97781.22;5073417;28;19958;-71
2022/03/22 09:36:48;;;;;;;;;;;;;;;13.38;34.49;97794.66;5073282;28;19955;-72
2022/03/22 09:39:14;;;;;;;;;;;;;;;13.38;34.37;97785.94;5072155;28;19951;-72
2022/03/22 09:41:40;;;;;;;;;;;;;;;13.51;33.93;97785.94;5073057;28;19951;-72
2022/03/22 09:44:06;;;;;;;;;;;;;;;13.67;33.30;97778.59;5073097;28;19954;-72
2022/03/22 09:46:35;;;;;;;;;;;;;;;13.83;33.25;97783.47;5072832;28;20016;-72
2022/03/22 09:49:01;;;;;;;;;;;;;;;13.88;33.22;97778.41;5073163;28;20332;-71
2022/03/22 09:51:45;;;;;;;;;;;;;;;13.85;32.78;97773.50;5072810;28;20041;-72
2022/03/22 09:54:12;;;;;;;;;;;;;;;13.95;33.61;97771.25;5073423;28;19952;-72
2022/03/22 09:56:39;;;;;;;;;;;;;;;14.01;33.20;97777.56;5073009;28;19962;-72
2022/03/22 09:59:06;;;;;;;;;;;;;;;13.86;33.50;97774.31;5073508;28;19950;-71
2022/03/22 10:01:32;;;;;;;;;;;;;;;13.73;35.12;97775.16;5072948;28;19945;-72
2022/03/22 10:04:03;;;;;;;;;;;;;;;13.68;33.56;97777.59;5072915;28;19978;-71
2022/03/22 10:06:29;;;;;;;;;;;;;;;13.68;34.95;97778.41;5073022;28;19984;-72
2022/03/22 10:08:56;;;;;;;;;;;;;;;13.84;34.62;97771.91;5073171;28;19959;-72
2022/03/22 10:11:22;;;;;;;;;;;;;;;14.03;33.63;97764.97;5075516;28;19945;-72
2022/03/22 10:13:51;;;;;;;;;;;;;;;14.18;32.12;97760.25;5076269;28;19953;-72
2022/03/22 10:16:17;;;;;;;;;;;;;;;14.23;32.85;97767.53;5076622;28;19969;-72
2022/03/22 10:18:43;;;;;;;;;;;;;;;14.27;33.08;97767.94;5076463;28;19951;-72
2022/03/22 10:21:08;;;;;;;;;;;;;;;14.37;34.23;97768.31;5076395;28;19951;-72
2022/03/22 10:23:46;;;;;;;;;;;;;;;14.47;34.01;97763.38;5076196;28;19959;-72
2022/03/22 10:26:12;;;;;;;;;;;;;;;14.51;33.14;97767.22;5075153;28;20308;-72
2022/03/22 10:28:47;;;;;;;;;;;;;;;14.66;33.54;97766.16;5076262;28;19963;-72
2022/03/22 10:31:13;;;;;;;;;;;;;;;14.89;33.24;97761.16;5075640;28;19954;-72
2022/03/22 10:33:47;;;;;;;;;;;;;;;15.10;31.09;97753.88;5075971;28;20044;-72
2022/03/22 10:36:15;;;;;;;;;;;;;;;15.20;30.26;97744.47;5076274;28;20415;-73
2022/03/22 10:38:40;;;;;;;;;;;;;;;15.29;31.92;97750.31;5075006;28;19945;-72
2022/03/22 10:41:09;;;;;;;;;;;;;;;15.31;31.44;97737.69;5076068;28;19953;-72
2022/03/22 10:43:36;;;;;;;;;;;;;;;15.41;31.48;97737.19;5075745;28;19951;-72
2022/03/22 10:46:04;;;;;;;;;;;;;;;15.50;31.42;97737.75;5074818;28;19987;-72
2022/03/22 10:48:37;;;;;;;;;;;;;;;15.72;31.69;97736.31;5075759;28;20332;-72
2022/03/22 10:51:03;;;;;;;;;;;;;;;15.96;30.69;97736.50;5075962;28;20021;-72
2022/03/22 10:53:30;;;;;;;;;;;;;;;15.97;31.07;97743.38;5075880;28;19955;-72
2022/03/22 10:55:57;;;;;;;;;;;;;;;16.03;29.62;97732.72;5075958;28;19942;-72
2022/03/22 10:58:25;;;;;;;;;;;;;;;16.14;28.74;97731.16;5057757;28;19953;-73
2022/03/22 11:00:52;;;;;;;;;;;;;;;16.25;30.22;97734.91;5066873;28;20441;-72
2022/03/22 11:03:18;;;;;;;;;;;;;;;16.51;31.27;97730.34;5075408;28;19977;-72
2022/03/22 11:05:45;;;;;;;;;;;;;;;16.62;28.77;97730.38;5076005;28;19976;-72
2022/03/22 11:08:11;;;;;;;;;;;;;;;16.73;30.07;97730.63;5075216;28;19945;-72
2022/03/22 11:10:37;;;;;;;;;;;;;;;16.75;28.88;97725.91;5075586;28;19953;-72
2022/03/22 11:13:03;;;;;;;;;;;;;;;16.87;31.59;97728.63;5075399;28;19994;-73
2022/03/22 11:15:35;;;;;;;;;;;;;;;17.00;29.68;97723.13;5075680;28;19955;-72
2022/03/22 11:18:02;;;;;;;;;;;;;;;17.13;28.72;97716.81;5074094;28;20413;-72
2022/03/22 11:20:28;;;;;;;;;;;;;;;17.22;28.77;97712.81;5075387;28;19944;-71
2022/03/22 11:22:55;;;;;;;;;;;;;;;17.33;29.02;97717.31;5075480;28;19989;-72
2022/03/22 11:25:31;;;;;;;;;;;;;;;17.45;27.60;97714.66;5075070;28;19969;-72
2022/03/22 11:28:07;;;;;;;;;;;;;;;17.50;27.64;97716.63;5075002;28;20406;-72
2022/03/22 11:30:33;;;;;;;;;;;;;;;17.67;28.70;97714.88;5075508;28;19944;-72
2022/03/22 11:35:46;;;;;;;;;;;;;;;17.91;27.88;97709.56;5075143;28;19949;-72
2022/03/22 11:38:13;;;;;;;;;;;;;;;18.00;27.62;97703.66;5074801;28;19956;-72
2022/03/22 11:43:41;;;;;;;;;;;;;;;18.24;28.34;97707.03;5075025;28;19956;-72
2022/03/22 11:46:07;;;;;;;;;;;;;;;18.29;27.29;97700.22;5067231;28;20012;-72
2022/03/22 11:48:33;;;;;;;;;;;;;;;18.40;25.88;97697.53;5074431;28;20437;-72
2022/03/22 11:51:05;;;;;;;;;;;;;;;18.51;25.82;97700.38;5074904;28;19976;-72
2022/03/22 11:53:39;;;;;;;;;;;;;;;18.42;26.28;97689.34;5074464;28;19952;-72
2022/03/22 11:56:05;;;;;;;;;;;;;;;18.38;27.06;97698.81;5074677;28;19951;-72
2022/03/22 11:58:31;;;;;;;;;;;;;;;18.42;26.71;97692.00;5074509;28;19957;-72
2022/03/22 12:01:00;;;;;;;;;;;;;;;18.47;24.80;97676.13;5074507;28;20000;-72
2022/03/22 12:03:30;;;;;;;;;;;;;;;18.60;25.78;97686.47;5074223;28;19977;-71
2022/03/22 12:05:58;;;;;;;;;;;;;;;18.75;25.76;97680.63;5074159;28;20445;-72
2022/03/22 12:08:25;;;;;;;;;;;;;;;18.89;25.22;97683.78;5074149;28;20411;-72
2022/03/22 12:10:52;;;;;;;;;;;;;;;18.91;27.07;97680.91;5074733;28;19956;-72
2022/03/22 12:13:18;;;;;;;;;;;;;;;18.94;25.50;97680.41;5074128;28;19951;-72
2022/03/22 12:15:44;;;;;;;;;;;;;;;18.82;24.75;97677.84;5074036;28;19951;-72
2022/03/22 12:18:11;;;;;;;;;;;;;;;18.79;25.52;97673.81;5073057;28;20049;-72
2022/03/22 12:20:38;;;;;;;;;;;;;;;18.86;25.40;97677.13;5074090;28;19952;-72
2022/03/22 12:23:06;;;;;;;;;;;;;;;19.01;26.37;97673.09;5074000;28;20409;-72
2022/03/22 12:25:33;;;;;;;;;;;;;;;19.01;25.17;97681.06;5073933;28;19962;-72
2022/03/22 12:28:09;;;;;;;;;;;;;;;18.99;26.48;97683.97;5073940;28;20022;-73
2022/03/22 12:30:39;;;;;;;;;;;;;;;18.97;26.21;97670.13;5074718;28;20378;-72
2022/03/22 12:33:07;;;;;;;;;;;;;;;18.93;25.95;97676.16;5073596;28;19955;-72
2022/03/22 12:35:34;;;;;;;;;;;;;;;18.91;25.56;97660.44;5074440;28;19979;-71
2022/03/22 12:38:00;;;;;;;;;;;;;;;18.87;24.46;97675.25;5073838;28;19948;-72
2022/03/22 12:40:27;;;;;;;;;;;;;;;18.82;25.99;97668.00;5074004;28;19951;-72
2022/03/22 12:42:54;;;;;;;;;;;;;;;18.82;24.28;97668.00;5073792;28;19950;-72
2022/03/22 12:45:21;;;;;;;;;;;;;;;18.78;25.72;97666.88;5073458;28;19973;-72
2022/03/22 12:47:48;;;;;;;;;;;;;;;18.90;26.17;97656.19;5073622;28;19965;-72
2022/03/22 12:50:15;;;;;;;;;;;;;;;19.02;24.45;97658.75;5073314;28;19950;-72
2022/03/22 12:52:42;;;;;;;;;;;;;;;18.96;25.22;97652.56;5073387;28;19958;-72
2022/03/22 12:55:09;;;;;;;;;;;;;;;18.76;24.39;97662.81;5073190;28;19959;-72
2022/03/22 12:57:37;;;;;;;;;;;;;;;18.55;23.43;97653.69;5073846;28;19948;-71
2022/03/22 13:00:03;;;;;;;;;;;;;;;18.50;25.67;97650.94;5073550;28;19952;-71
2022/03/22 13:02:30;;;;;;;;;;;;;;;18.66;25.82;97648.31;5073071;28;19975;-71
2022/03/22 13:04:56;;;;;;;;;;;;;;;18.84;24.48;97633.22;5073491;28;20004;-71
2022/03/22 13:07:23;;;;;;;;;;;;;;;19.03;25.65;97633.78;5073246;28;19955;-71
2022/03/22 13:12:34;;;;;;;;;;;;;;;19.26;25.47;97636.25;5073510;28;20427;-71
2022/03/22 13:15:06;;;;;;;;;;;;;;;19.30;25.42;97633.91;5073434;28;19953;-71
2022/03/22 13:17:41;;;;;;;;;;;;;;;19.22;23.42;97626.34;5059021;28;19955;-71
2022/03/22 13:20:17;;;;;;;;;;;;;;;19.12;25.31;97634.97;5073155;28;19953;-72
2022/03/22 13:23:04;;;;;;;;;;;;;;;19.00;25.05;97628.94;5073635;28;20306;-71
2022/03/22 13:25:33;;;;;;;;;;;;;;;18.98;25.32;97626.53;5073080;28;19967;-71
2022/03/22 13:28:05;;;;;;;;;;;;;;;18.95;24.82;97634.19;5073357;28;20394;-71